Lockport, NY

9:35 AM EST on December 22, 2014 (GMT -0500)
Niagara Falls International | Change Station
CLOSE
Current Station
Airport
Location: Niagara Falls,
Elevation: 584 ft
Nearby Weather Stations

Elev 584 ft 43.11 °N, 78.94 °W | Updated 42 minutes ago

Mostly Cloudy
Mostly Cloudy
28 °F
Feels Like 22 °F
N
6
Wind Variable Wind from East

Today
High -- | Low -- °F
--% Chance of Precip.
Yesterday
High -- | Low -- °F
Precip. -- in
7:43 AM 4:43 PM
New Moon, 0% visible
Pressure 30.24 in
Visibility 8.0 miles
Clouds Scattered Clouds 1800 ft
Mostly Cloudy 4000 ft
Mostly Cloudy 14000 ft
Mostly Cloudy 22000 ft
Windchill 22 °F
Dew Point 22 °F
Humidity 78%
Rainfall 0.00 in
Snow Depth Not available.
UV 0 out of 12
Pollen .10 out of 12
Air Quality Not available.
Flu Activity Not available.
METAR KIAG 221353Z 09005KT 8SM SCT018 BKN040 BKN140 BKN220 M02/M06 A3019 RMK AO2 SLP238 T10221056

More Conditions Fewer Conditions

Pressure 30.24 in
Visibility 8.0 miles
Clouds Scattered Clouds 1800 ft
Mostly Cloudy 4000 ft
Mostly Cloudy 14000 ft
Mostly Cloudy 22000 ft
Windchill 22 °F
Dew Point 22 °F
Humidity 78%
Rainfall 0.00 in
Snow Depth Not available.
UV 0 out of 12
Pollen .10 out of 12
Air Quality Not available.
Flu Activity Not available.
METAR KIAG 221353Z 09005KT 8SM SCT018 BKN040 BKN140 BKN220 M02/M06 A3019 RMK AO2 SLP238 T10221056

More Conditions Fewer Conditions

10-Day Weather Forecast

Almanac

Astronomy

Dec. 22, 2014 Rise Set
Actual Time
Civil Twilight
Nautical Twilight
Astronomical Twilight
Moon
Length of Visible Light
Length of Day
Tomorrow will be .
, % of the Moon is Illuminated

Today's Extremes

State Highs State Lows

Community

WunderPhotos

Upload Photos

1,779,608 photos uploaded!

WunderBlogs® & News

Nearby

Air Quality

  Air Quality AQ Index Pollutant
Not available.

Snow Depth

Station Depth Elevation

Earthquake Activity

City Distance Mag. Time & Date
Minimum magnitude displayed is 2.5.

Coastal Water Temperatures

Place Temperature

Nearby Weather Stations